createdAt,value
2022-08-07T00:00:03.014Z,17.35
2022-08-07T00:02:44.506Z,17.29
2022-08-07T00:05:16.531Z,17.27
2022-08-07T00:07:43.601Z,17.21
2022-08-07T00:10:27.078Z,17.22
2022-08-07T00:13:00.320Z,17.17
2022-08-07T00:15:46.702Z,17.16
2022-08-07T00:18:35.386Z,17.10
2022-08-07T00:21:55.886Z,17.12
2022-08-07T00:23:56.430Z,17.07
2022-08-07T00:26:58.445Z,16.95
2022-08-07T00:29:31.472Z,16.87
2022-08-07T00:32:32.550Z,16.88
2022-08-07T00:35:02.052Z,16.81
2022-08-07T00:37:47.800Z,16.77
2022-08-07T00:40:36.635Z,16.75
2022-08-07T00:44:00.978Z,16.68
2022-08-07T00:46:04.581Z,16.62
2022-08-07T00:48:34.608Z,16.57
2022-08-07T00:51:06.244Z,16.59
2022-08-07T00:53:55.005Z,16.53
2022-08-07T00:56:33.977Z,16.43
2022-08-07T00:59:09.878Z,16.42
2022-08-07T01:01:44.746Z,16.30
2022-08-07T01:04:26.844Z,16.23
2022-08-07T01:07:00.894Z,16.17
2022-08-07T01:10:04.729Z,16.19
2022-08-07T01:12:29.758Z,16.11
2022-08-07T01:15:03.654Z,16.01
2022-08-07T01:17:43.989Z,15.96
2022-08-07T01:20:21.130Z,15.85
2022-08-07T01:23:09.007Z,15.80
2022-08-07T01:25:55.615Z,15.72
2022-08-07T01:28:27.110Z,15.71
2022-08-07T01:30:56.383Z,15.65
2022-08-07T01:33:56.084Z,15.49
2022-08-07T01:36:21.803Z,15.50
2022-08-07T01:42:07.360Z,15.28
2022-08-07T01:44:34.828Z,15.23
2022-08-07T01:47:14.535Z,15.19
2022-08-07T01:50:00.760Z,15.10
2022-08-07T01:52:49.437Z,15.04
2022-08-07T01:55:24.231Z,15.00
2022-08-07T01:58:06.377Z,15.03
2022-08-07T02:00:49.092Z,14.99
2022-08-07T02:03:21.756Z,15.05
2022-08-07T02:05:59.828Z,15.10
2022-08-07T02:08:33.787Z,15.05
2022-08-07T02:11:03.802Z,15.04
2022-08-07T02:13:57.880Z,14.99
2022-08-07T02:16:32.959Z,15.03
2022-08-07T02:19:05.597Z,15.10
2022-08-07T02:21:56.948Z,15.09
2022-08-07T02:24:29.545Z,15.10
2022-08-07T02:27:02.795Z,15.06
2022-08-07T02:29:43.395Z,15.05
2022-08-07T02:32:23.416Z,15.02
2022-08-07T02:34:57.469Z,15.04
2022-08-07T02:37:27.087Z,14.97
2022-08-07T02:40:11.757Z,14.89
2022-08-07T02:43:02.374Z,14.80
2022-08-07T02:45:58.899Z,14.72
2022-08-07T02:48:31.695Z,14.65
2022-08-07T02:51:07.037Z,14.59
2022-08-07T02:53:54.438Z,14.57
2022-08-07T02:56:25.969Z,14.54
2022-08-07T02:59:12.472Z,14.39
2022-08-07T03:01:47.271Z,14.30
2022-08-07T03:04:24.743Z,14.31
2022-08-07T03:07:07.227Z,14.34
2022-08-07T03:09:52.811Z,14.19
2022-08-07T03:12:39.170Z,14.17
2022-08-07T03:15:10.016Z,14.24
2022-08-07T03:17:53.380Z,14.20
2022-08-07T03:20:24.658Z,14.16
2022-08-07T03:22:59.101Z,14.15
2022-08-07T03:28:38.418Z,14.18
2022-08-07T03:31:42.677Z,14.16
2022-08-07T03:34:22.537Z,14.14
2022-08-07T03:36:59.404Z,14.12
2022-08-07T03:39:46.084Z,14.15
2022-08-07T03:42:52.124Z,14.15
2022-08-07T03:45:31.598Z,14.15
2022-08-07T03:48:09.980Z,14.13
2022-08-07T03:50:57.743Z,14.06
2022-08-07T03:53:50.218Z,13.99
2022-08-07T03:59:30.549Z,13.93
2022-08-07T04:02:14.296Z,13.88
2022-08-07T04:04:45.196Z,13.82
2022-08-07T04:07:35.927Z,13.77
2022-08-07T04:10:04.716Z,13.72
2022-08-07T04:12:45.668Z,13.69
2022-08-07T04:15:23.960Z,13.69
2022-08-07T04:18:57.225Z,13.66
2022-08-07T04:20:55.002Z,13.59
2022-08-07T04:23:23.281Z,13.60
2022-08-07T04:26:21.665Z,13.66
2022-08-07T04:28:55.106Z,13.68
2022-08-07T04:31:38.476Z,13.70
2022-08-07T04:34:36.487Z,13.63
2022-08-07T04:37:20.574Z,13.61
2022-08-07T04:39:47.974Z,13.61
2022-08-07T04:42:19.632Z,13.68
2022-08-07T04:44:54.350Z,13.68
2022-08-07T04:47:57.045Z,13.65
2022-08-07T04:50:41.914Z,13.69
2022-08-07T04:53:40.270Z,13.70
2022-08-07T04:58:11.156Z,13.76
2022-08-07T05:00:12.396Z,13.77
2022-08-07T05:02:16.865Z,13.82
2022-08-07T05:04:53.792Z,13.77
2022-08-07T05:07:48.359Z,13.82
2022-08-07T05:10:23.216Z,13.82
2022-08-07T05:14:44.473Z,13.93
2022-08-07T05:16:13.628Z,14.05
2022-08-07T05:18:47.232Z,14.03
2022-08-07T05:21:25.294Z,14.05
2022-08-07T05:24:11.844Z,14.11
2022-08-07T05:26:39.599Z,14.13
2022-08-07T05:29:08.354Z,14.22
2022-08-07T05:31:41.093Z,14.28
2022-08-07T05:34:19.254Z,14.33
2022-08-07T05:36:52.758Z,14.43
2022-08-07T05:40:06.941Z,14.42
2022-08-07T05:42:12.367Z,14.55
2022-08-07T05:44:41.501Z,14.65
2022-08-07T05:47:37.924Z,14.64
2022-08-07T05:50:03.257Z,14.81
2022-08-07T05:52:32.719Z,14.93
2022-08-07T05:55:07.249Z,15.00
2022-08-07T05:57:42.361Z,15.08
2022-08-07T06:00:16.327Z,15.15
2022-08-07T06:02:47.788Z,15.23
2022-08-07T06:05:15.813Z,15.28
2022-08-07T06:08:14.461Z,15.34
2022-08-07T06:10:30.372Z,15.44
2022-08-07T06:12:57.081Z,15.60
2022-08-07T06:15:39.488Z,15.63
2022-08-07T06:18:12.205Z,15.62
2022-08-07T06:20:50.276Z,15.70
2022-08-07T06:24:37.936Z,15.76
2022-08-07T06:26:16.715Z,15.90
2022-08-07T06:28:50.265Z,16.04
2022-08-07T06:31:20.110Z,16.18
2022-08-07T06:33:50.911Z,16.28
2022-08-07T06:36:34.861Z,16.40
2022-08-07T06:40:16.632Z,16.54
2022-08-07T06:42:04.602Z,16.73
2022-08-07T06:44:36.581Z,16.91
2022-08-07T06:47:10.141Z,16.99
2022-08-07T06:49:50.984Z,17.18
2022-08-07T06:52:31.884Z,17.35
2022-08-07T06:55:33.771Z,17.55
2022-08-07T06:58:00.642Z,17.77
2022-08-07T07:00:34.658Z,18.07
2022-08-07T07:03:08.894Z,18.37
2022-08-07T07:06:04.725Z,18.61
2022-08-07T07:08:29.588Z,18.77
2022-08-07T07:10:58.810Z,18.96
2022-08-07T07:13:56.330Z,19.15
2022-08-07T07:16:23.729Z,19.34
2022-08-07T07:19:11.461Z,19.49
2022-08-07T07:22:04.721Z,19.67
2022-08-07T07:24:38.305Z,19.90
2022-08-07T07:27:13.395Z,20.05
2022-08-07T07:30:09.413Z,20.20
2022-08-07T07:32:40.888Z,20.38
2022-08-07T07:35:12.021Z,20.53
2022-08-07T07:37:49.482Z,20.67
2022-08-07T07:40:25.519Z,20.81
2022-08-07T07:42:55.600Z,20.95
2022-08-07T07:46:53.349Z,21.17
2022-08-07T07:48:24.316Z,21.36
2022-08-07T07:51:07.739Z,21.55
2022-08-07T07:53:50.355Z,21.61
2022-08-07T07:56:30.125Z,21.75
2022-08-07T07:59:01.603Z,21.93
2022-08-07T08:02:01.997Z,21.93
2022-08-07T08:04:18.394Z,22.05
2022-08-07T08:06:52.130Z,22.13
2022-08-07T08:09:24.129Z,22.23
2022-08-07T08:12:01.854Z,22.30
2022-08-07T08:14:36.564Z,22.39
2022-08-07T08:18:36.859Z,22.45
2022-08-07T08:20:18.487Z,22.82
2022-08-07T08:23:08.418Z,22.99
2022-08-07T08:25:56.769Z,23.24
2022-08-07T08:28:38.667Z,23.24
2022-08-07T08:31:14.792Z,23.24
2022-08-07T08:33:55.685Z,23.61
2022-08-07T08:36:30.047Z,23.79
2022-08-07T08:39:01.991Z,23.67
2022-08-07T08:41:57.718Z,23.77
2022-08-07T08:44:36.254Z,23.79
2022-08-07T08:47:25.085Z,24.06
2022-08-07T08:50:35.377Z,24.04
2022-08-07T08:53:32.636Z,24.12
2022-08-07T08:56:22.865Z,24.03
2022-08-07T08:59:12.853Z,24.34
2022-08-07T09:02:00.165Z,23.98
2022-08-07T09:04:31.643Z,24.20
2022-08-07T09:07:23.033Z,24.26
2022-08-07T09:09:58.735Z,24.51
2022-08-07T09:12:53.581Z,24.63
2022-08-07T09:16:24.256Z,24.72
2022-08-07T09:19:03.591Z,24.91
2022-08-07T09:22:10.122Z,24.96
2022-08-07T09:25:12.091Z,25.20
2022-08-07T09:30:01.134Z,25.37
2022-08-07T09:31:38.688Z,25.32
2022-08-07T09:34:21.500Z,25.59
2022-08-07T09:37:01.657Z,25.82
2022-08-07T09:39:53.769Z,25.49
2022-08-07T09:42:58.645Z,25.14
2022-08-07T09:47:50.443Z,25.30
2022-08-07T09:50:00.886Z,25.34
2022-08-07T09:52:10.497Z,25.13
2022-08-07T09:54:46.738Z,25.52
2022-08-07T09:57:37.530Z,25.32
2022-08-07T10:00:16.494Z,25.44
2022-08-07T10:04:05.007Z,25.69
2022-08-07T10:06:24.623Z,25.88
2022-08-07T10:09:23.718Z,25.97
2022-08-07T10:12:21.591Z,26.28
2022-08-07T10:14:58.395Z,26.54
2022-08-07T10:18:02.818Z,26.79
2022-08-07T10:20:50.305Z,26.28
2022-08-07T10:24:06.856Z,26.50
2022-08-07T10:26:56.350Z,26.65
2022-08-07T10:30:06.243Z,27.05
2022-08-07T10:32:51.008Z,27.28
2022-08-07T10:35:25.774Z,27.11
2022-08-07T10:38:35.324Z,26.83
2022-08-07T10:41:08.694Z,26.91
2022-08-07T10:43:48.019Z,26.94
2022-08-07T10:46:30.895Z,27.27
2022-08-07T10:49:04.166Z,27.57
2022-08-07T10:51:38.887Z,27.60
2022-08-07T10:54:17.856Z,27.47
2022-08-07T10:57:34.827Z,27.30
2022-08-07T11:00:36.901Z,27.36
2022-08-07T11:03:23.337Z,27.51
2022-08-07T11:06:26.926Z,27.66
2022-08-07T11:10:08.996Z,27.66
2022-08-07T11:12:37.854Z,27.75
2022-08-07T11:15:17.371Z,27.76
2022-08-07T11:17:50.097Z,28.02
2022-08-07T11:20:42.885Z,28.13
2022-08-07T11:23:38.774Z,28.21
2022-08-07T11:26:20.228Z,28.08
2022-08-07T11:28:58.866Z,28.06
2022-08-07T11:31:42.394Z,28.32
2022-08-07T11:34:31.990Z,28.06
2022-08-07T11:37:18.177Z,28.00
2022-08-07T11:40:03.603Z,27.86
2022-08-07T11:42:37.117Z,27.78
2022-08-07T11:45:50.195Z,28.05
2022-08-07T11:48:40.729Z,28.11
2022-08-07T11:51:41.819Z,28.13
2022-08-07T11:54:37.447Z,28.03
2022-08-07T11:57:20.724Z,28.04
2022-08-07T12:00:29.022Z,28.06
2022-08-07T12:03:42.300Z,27.87
2022-08-07T12:06:39.668Z,28.20
2022-08-07T12:09:24.714Z,28.50
2022-08-07T12:12:09.277Z,28.06
2022-08-07T12:14:56.277Z,28.00
2022-08-07T12:17:34.156Z,27.94
2022-08-07T12:20:32.325Z,28.03
2022-08-07T12:23:14.466Z,28.21
2022-08-07T12:26:22.419Z,28.46
2022-08-07T12:29:03.839Z,28.51
2022-08-07T12:32:04.845Z,28.53
2022-08-07T12:34:38.773Z,28.45
2022-08-07T12:37:16.594Z,28.24
2022-08-07T12:39:52.513Z,28.72
2022-08-07T12:42:27.242Z,28.69
2022-08-07T12:44:58.390Z,28.63
2022-08-07T12:47:51.030Z,28.42
2022-08-07T12:50:39.902Z,28.60
2022-08-07T12:53:25.210Z,28.49
2022-08-07T12:56:26.606Z,28.70
2022-08-07T12:58:57.083Z,28.75
2022-08-07T13:01:40.851Z,28.83
2022-08-07T13:04:43.530Z,28.86
2022-08-07T13:08:11.855Z,28.91
2022-08-07T13:11:08.536Z,28.72
2022-08-07T13:13:53.815Z,28.52
2022-08-07T13:17:02.313Z,28.49
2022-08-07T13:19:54.578Z,28.54
2022-08-07T13:22:36.268Z,28.48
2022-08-07T13:25:10.485Z,28.58
2022-08-07T13:28:12.706Z,28.63
2022-08-07T13:30:52.107Z,28.77
2022-08-07T13:34:29.724Z,28.93
2022-08-07T13:36:47.842Z,29.12
2022-08-07T13:39:49.216Z,29.17
2022-08-07T13:42:19.212Z,29.16
2022-08-07T13:45:11.786Z,28.59
2022-08-07T13:48:06.538Z,28.51
2022-08-07T13:50:36.632Z,28.51
2022-08-07T13:53:23.706Z,28.59
2022-08-07T13:55:54.827Z,28.70
2022-08-07T13:58:43.360Z,29.01
2022-08-07T14:01:27.046Z,28.90
2022-08-07T14:04:05.212Z,28.89
2022-08-07T14:06:40.685Z,28.91
2022-08-07T14:10:02.927Z,28.88
2022-08-07T14:12:10.273Z,28.80
2022-08-07T14:14:43.860Z,28.81
2022-08-07T14:18:12.671Z,28.77
2022-08-07T14:20:42.100Z,28.89
2022-08-07T14:23:14.706Z,29.06
2022-08-07T14:26:05.526Z,29.10
2022-08-07T14:28:58.978Z,29.00
2022-08-07T14:31:25.979Z,29.07
2022-08-07T14:34:11.955Z,28.92
2022-08-07T14:36:56.264Z,28.94
2022-08-07T14:40:16.664Z,29.10
2022-08-07T14:42:19.721Z,28.94
2022-08-07T14:44:53.538Z,28.77
2022-08-07T14:47:23.165Z,28.71
2022-08-07T14:52:40.589Z,28.31
2022-08-07T14:55:10.671Z,28.40
2022-08-07T14:57:58.110Z,28.64
2022-08-07T15:00:31.661Z,28.88
2022-08-07T15:03:18.620Z,28.84
2022-08-07T15:05:54.850Z,29.11
2022-08-07T15:08:50.247Z,29.45
2022-08-07T15:11:54.285Z,29.52
2022-08-07T15:14:20.695Z,29.84
2022-08-07T15:16:54.824Z,30.11
2022-08-07T15:22:22.159Z,30.12
2022-08-07T15:25:15.442Z,30.24
2022-08-07T15:28:32.962Z,31.10
2022-08-07T15:30:36.300Z,31.81
2022-08-07T15:33:33.858Z,32.81
2022-08-07T15:36:07.610Z,34.03
2022-08-07T15:38:51.268Z,33.52
2022-08-07T15:42:42.511Z,36.11
2022-08-07T15:44:20.836Z,37.73
2022-08-07T15:46:55.867Z,37.82
2022-08-07T15:52:30.288Z,39.64
2022-08-07T15:55:02.871Z,38.75
2022-08-07T15:57:39.892Z,37.92
2022-08-07T16:00:32.157Z,38.43
2022-08-07T16:03:47.322Z,39.53
2022-08-07T16:06:09.396Z,38.25
2022-08-07T16:08:42.421Z,38.16
2022-08-07T16:11:39.968Z,38.32
2022-08-07T16:14:36.658Z,39.23
2022-08-07T16:18:01.448Z,38.20
2022-08-07T16:20:33.954Z,38.82
2022-08-07T16:23:53.542Z,38.19
2022-08-07T16:26:30.856Z,38.18
2022-08-07T16:30:10.206Z,38.58
2022-08-07T16:32:34.498Z,37.64
2022-08-07T16:35:51.700Z,35.40
2022-08-07T16:38:57.298Z,33.67
2022-08-07T16:41:29.296Z,32.21
2022-08-07T16:44:53.609Z,30.84
2022-08-07T16:47:51.472Z,30.20
2022-08-07T16:50:48.212Z,29.64
2022-08-07T16:54:01.977Z,29.07
2022-08-07T16:56:54.708Z,28.70
2022-08-07T16:59:46.629Z,28.53
2022-08-07T17:02:28.352Z,28.20
2022-08-07T17:06:01.755Z,28.00
2022-08-07T17:08:09.265Z,27.80
2022-08-07T17:10:54.624Z,27.50
2022-08-07T17:13:41.786Z,27.35
2022-08-07T17:16:43.673Z,27.33
2022-08-07T17:20:02.178Z,27.18
2022-08-07T17:22:48.659Z,27.05
2022-08-07T17:25:51.363Z,26.93
2022-08-07T17:28:19.641Z,26.81
2022-08-07T17:31:00.636Z,26.64
2022-08-07T17:34:15.003Z,26.56
2022-08-07T17:36:57.725Z,26.54
2022-08-07T17:39:58.436Z,26.54
2022-08-07T17:42:36.033Z,26.44
2022-08-07T17:45:31.601Z,26.36
2022-08-07T17:48:31.070Z,26.29
2022-08-07T17:51:59.871Z,26.21
2022-08-07T17:54:53.644Z,26.12
2022-08-07T17:57:56.105Z,26.01
2022-08-07T18:00:27.549Z,25.92
2022-08-07T18:03:18.586Z,25.95
2022-08-07T18:06:01.814Z,25.92
2022-08-07T18:08:36.299Z,25.91
2022-08-07T18:12:17.930Z,25.82
2022-08-07T18:15:02.938Z,25.78
2022-08-07T18:18:08.259Z,25.62
2022-08-07T18:21:40.104Z,25.61
2022-08-07T18:24:28.457Z,25.57
2022-08-07T18:27:25.603Z,25.53
2022-08-07T18:30:31.596Z,25.39
2022-08-07T18:33:16.123Z,25.31
2022-08-07T18:35:55.793Z,25.21
2022-08-07T18:38:59.082Z,25.16
2022-08-07T18:41:44.915Z,25.07
2022-08-07T18:45:09.083Z,24.93
2022-08-07T18:47:36.005Z,24.76
2022-08-07T18:50:39.073Z,24.68
2022-08-07T18:53:48.718Z,24.57
2022-08-07T18:56:33.683Z,24.37
2022-08-07T18:59:47.061Z,24.28
2022-08-07T19:02:34.610Z,24.23
2022-08-07T19:06:04.179Z,24.08
2022-08-07T19:08:28.956Z,24.05
2022-08-07T19:11:36.730Z,23.97
2022-08-07T19:14:20.335Z,23.82
2022-08-07T19:17:08.063Z,23.73
2022-08-07T19:19:58.612Z,23.63
2022-08-07T19:22:48.046Z,23.52
2022-08-07T19:26:23.199Z,23.39
2022-08-07T19:28:30.536Z,23.39
2022-08-07T19:31:37.221Z,23.32
2022-08-07T19:34:00.363Z,23.22
2022-08-07T19:36:43.758Z,23.16
2022-08-07T19:39:56.910Z,23.10
2022-08-07T19:42:24.569Z,22.93
2022-08-07T19:44:57.253Z,22.90
2022-08-07T19:47:36.789Z,22.73
2022-08-07T19:50:41.250Z,22.63
2022-08-07T19:53:00.958Z,22.58
2022-08-07T19:55:56.540Z,22.55
2022-08-07T19:58:28.392Z,22.46
2022-08-07T20:00:59.837Z,22.47
2022-08-07T20:03:35.010Z,22.38
2022-08-07T20:06:05.059Z,22.29
2022-08-07T20:08:35.679Z,22.16
2022-08-07T20:11:10.292Z,22.01
2022-08-07T20:13:50.251Z,21.98
2022-08-07T20:16:36.223Z,21.99
2022-08-07T20:19:10.027Z,21.84
2022-08-07T20:21:46.793Z,21.69
2022-08-07T20:24:35.771Z,21.65
2022-08-07T20:27:11.767Z,21.53
2022-08-07T20:29:58.400Z,21.41
2022-08-07T20:32:40.076Z,21.39
2022-08-07T20:35:16.075Z,21.30
2022-08-07T20:37:58.329Z,21.29
2022-08-07T20:40:32.184Z,21.18
2022-08-07T20:43:02.248Z,21.03
2022-08-07T20:46:24.418Z,21.15
2022-08-07T20:48:28.620Z,21.02
2022-08-07T20:51:02.244Z,20.98
2022-08-07T20:54:04.482Z,20.87
2022-08-07T20:56:26.666Z,20.81
2022-08-07T20:58:55.868Z,20.77
2022-08-07T21:01:26.732Z,20.72
2022-08-07T21:04:22.656Z,20.74
2022-08-07T21:06:53.645Z,20.67
2022-08-07T21:09:24.537Z,20.63
2022-08-07T21:11:57.638Z,20.55
2022-08-07T21:14:33.395Z,20.52
2022-08-07T21:18:02.747Z,20.59
2022-08-07T21:20:04.913Z,20.57
2022-08-07T21:22:39.446Z,20.54
2022-08-07T21:25:29.025Z,20.46
2022-08-07T21:28:16.775Z,20.39
2022-08-07T21:31:49.711Z,20.35
2022-08-07T21:34:31.942Z,20.16
2022-08-07T21:37:07.989Z,20.00
2022-08-07T21:40:27.384Z,19.89
2022-08-07T21:43:47.124Z,19.85
2022-08-07T21:46:31.646Z,19.69
2022-08-07T21:49:21.132Z,19.64
2022-08-07T21:52:11.819Z,19.50
2022-08-07T21:54:50.421Z,19.39
2022-08-07T21:57:45.168Z,19.35
2022-08-07T22:00:24.787Z,19.25
2022-08-07T22:02:51.870Z,19.08
2022-08-07T22:05:45.841Z,19.00
2022-08-07T22:08:18.807Z,18.86
2022-08-07T22:11:02.495Z,18.94
2022-08-07T22:13:52.594Z,18.91
2022-08-07T22:16:47.720Z,18.76
2022-08-07T22:19:30.707Z,18.84
2022-08-07T22:22:20.803Z,18.72
2022-08-07T22:25:10.899Z,18.61
2022-08-07T22:28:24.621Z,18.52
2022-08-07T22:30:53.165Z,18.48
2022-08-07T22:33:52.707Z,18.51
2022-08-07T22:36:20.284Z,18.46
2022-08-07T22:38:59.233Z,18.44
2022-08-07T22:42:03.135Z,18.33
2022-08-07T22:44:34.474Z,18.23
2022-08-07T22:47:28.187Z,18.16
2022-08-07T22:50:32.997Z,18.19
2022-08-07T22:54:06.607Z,18.19
2022-08-07T22:56:39.980Z,18.13
2022-08-07T22:59:47.216Z,18.14
2022-08-07T23:02:48.785Z,18.11
2022-08-07T23:06:07.813Z,18.18
2022-08-07T23:08:22.161Z,18.07
2022-08-07T23:11:12.954Z,18.11
2022-08-07T23:14:16.146Z,18.11
2022-08-07T23:17:19.836Z,18.04
2022-08-07T23:20:40.474Z,18.05
2022-08-07T23:24:04.269Z,17.99
2022-08-07T23:26:54.960Z,18.02
2022-08-07T23:30:37.608Z,18.02
2022-08-07T23:34:34.650Z,17.96
2022-08-07T23:36:10.661Z,17.96
2022-08-07T23:38:57.156Z,17.92
2022-08-07T23:41:47.436Z,17.86
2022-08-07T23:44:51.315Z,17.89
2022-08-07T23:47:47.937Z,17.82
2022-08-07T23:50:36.670Z,17.71
2022-08-07T23:53:49.925Z,17.69
2022-08-07T23:56:21.708Z,17.65
2022-08-07T23:59:10.828Z,17.58
